ePrivacy and GPDR Cookie Consent by Cookie Consent
EmailTwitter


Observations de surface / France / LFBO (07630)

Régions: Québec | Canada | États-Unis | Europe | France | UK | Ailleurs
Station
Affichage
Infos & localisation pour LFBO (07630) | Aide pour décoder les METARs

Observations prises le 2021-04-11 à 18H00 UTC à TOULOUSE/BLAGNAC, FR (LFBO)

Température: 10.0 Celsius

Point de rosée: 6.0 Celsius

Humidité relative: 76%

Vents: Ouest à 6 km/h ou 3 noeuds.

Pression au niveau moyen de la mer: 102.00 kilopascals.

Observation METAR:

LFBO 111800Z AUTO 28003KT CAVOK 10/06 Q1020 TEMPO 4000 -SHRA SCT025TCU=